sensor_id;sensor_type;location;lat;lon;timestamp;temperature;humidity
43087;DHT22;28708;52.224;6.924;2022-12-11T00:00:01;-0.20;99.90
43087;DHT22;28708;52.224;6.924;2022-12-11T00:02:30;-0.30;99.90
43087;DHT22;28708;52.224;6.924;2022-12-11T00:04:55;-0.30;99.90
43087;DHT22;28708;52.224;6.924;2022-12-11T00:07:21;-0.30;99.90
43087;DHT22;28708;52.224;6.924;2022-12-11T00:09:46;-0.30;99.90
43087;DHT22;28708;52.224;6.924;2022-12-11T00:12:12;-0.30;99.90
43087;DHT22;28708;52.224;6.924;2022-12-11T00:14:38;-0.30;99.90
43087;DHT22;28708;52.224;6.924;2022-12-11T00:17:03;-0.40;99.90
43087;DHT22;28708;52.224;6.924;2022-12-11T00:19:29;-0.30;99.90
43087;DHT22;28708;52.224;6.924;2022-12-11T00:21:55;-0.30;99.90
43087;DHT22;28708;52.224;6.924;2022-12-11T00:24:20;-0.40;99.90
43087;DHT22;28708;52.224;6.924;2022-12-11T00:26:46;-0.40;99.90
43087;DHT22;28708;52.224;6.924;2022-12-11T00:29:13;-0.40;99.90
43087;DHT22;28708;52.224;6.924;2022-12-11T00:31:42;-0.50;99.90
43087;DHT22;28708;52.224;6.924;2022-12-11T00:34:09;-0.50;99.90
43087;DHT22;28708;52.224;6.924;2022-12-11T00:36:37;-0.30;99.90
43087;DHT22;28708;52.224;6.924;2022-12-11T00:39:03;-0.30;99.90
43087;DHT22;28708;52.224;6.924;2022-12-11T00:41:30;-0.30;99.90
43087;DHT22;28708;52.224;6.924;2022-12-11T00:43:56;-0.30;99.90
43087;DHT22;28708;52.224;6.924;2022-12-11T00:46:21;-0.20;99.90
43087;DHT22;28708;52.224;6.924;2022-12-11T00:48:47;-0.20;99.90
43087;DHT22;28708;52.224;6.924;2022-12-11T00:51:15;-0.10;99.90
43087;DHT22;28708;52.224;6.924;2022-12-11T00:53:41;-0.20;99.90
43087;DHT22;28708;52.224;6.924;2022-12-11T00:56:12;-0.20;99.90
43087;DHT22;28708;52.224;6.924;2022-12-11T00:58:38;-0.20;99.90
43087;DHT22;28708;52.224;6.924;2022-12-11T01:01:05;-0.30;99.90
43087;DHT22;28708;52.224;6.924;2022-12-11T01:03:31;-0.40;99.90
43087;DHT22;28708;52.224;6.924;2022-12-11T01:05:57;-0.40;99.90
43087;DHT22;28708;52.224;6.924;2022-12-11T01:08:22;-0.40;99.90
43087;DHT22;28708;52.224;6.924;2022-12-11T01:10:48;-0.50;99.90
43087;DHT22;28708;52.224;6.924;2022-12-11T01:13:14;-0.50;99.90
43087;DHT22;28708;52.224;6.924;2022-12-11T01:15:42;-0.50;99.90
43087;DHT22;28708;52.224;6.924;2022-12-11T01:18:10;-0.40;99.90
43087;DHT22;28708;52.224;6.924;2022-12-11T01:20:37;-0.40;99.90
43087;DHT22;28708;52.224;6.924;2022-12-11T01:23:04;-0.30;99.90
43087;DHT22;28708;52.224;6.924;2022-12-11T01:25:31;-0.30;99.90
43087;DHT22;28708;52.224;6.924;2022-12-11T01:27:58;-0.20;99.90
43087;DHT22;28708;52.224;6.924;2022-12-11T01:30:24;-0.20;99.90
43087;DHT22;28708;52.224;6.924;2022-12-11T01:32:50;-0.20;99.90
43087;DHT22;28708;52.224;6.924;2022-12-11T01:35:17;-0.30;99.90
43087;DHT22;28708;52.224;6.924;2022-12-11T01:37:43;-0.20;99.90
43087;DHT22;28708;52.224;6.924;2022-12-11T01:40:12;-0.20;99.90
43087;DHT22;28708;52.224;6.924;2022-12-11T01:42:38;-0.20;99.90
43087;DHT22;28708;52.224;6.924;2022-12-11T01:45:28;-0.20;99.90
43087;DHT22;28708;52.224;6.924;2022-12-11T01:48:00;-0.10;99.90
43087;DHT22;28708;52.224;6.924;2022-12-11T01:50:28;-0.20;99.90
43087;DHT22;28708;52.224;6.924;2022-12-11T01:52:54;-0.10;99.90
43087;DHT22;28708;52.224;6.924;2022-12-11T01:55:20;0.00;99.90
43087;DHT22;28708;52.224;6.924;2022-12-11T01:57:48;0.00;99.90
43087;DHT22;28708;52.224;6.924;2022-12-11T02:00:15;-0.10;99.90
43087;DHT22;28708;52.224;6.924;2022-12-11T02:02:43;0.00;99.90
43087;DHT22;28708;52.224;6.924;2022-12-11T02:05:09;0.10;99.90
43087;DHT22;28708;52.224;6.924;2022-12-11T02:07:39;0.20;99.90
43087;DHT22;28708;52.224;6.924;2022-12-11T02:10:06;0.10;99.90
43087;DHT22;28708;52.224;6.924;2022-12-11T02:17:47;0.20;99.90
43087;DHT22;28708;52.224;6.924;2022-12-11T02:20:23;0.30;99.90
43087;DHT22;28708;52.224;6.924;2022-12-11T02:26:06;0.30;99.90
43087;DHT22;28708;52.224;6.924;2022-12-11T02:28:57;0.20;99.90
43087;DHT22;28708;52.224;6.924;2022-12-11T02:31:45;0.20;99.90
43087;DHT22;28708;52.224;6.924;2022-12-11T02:34:27;0.20;99.90
43087;DHT22;28708;52.224;6.924;2022-12-11T02:36:59;0.30;99.90
43087;DHT22;28708;52.224;6.924;2022-12-11T02:39:26;0.20;99.90
43087;DHT22;28708;52.224;6.924;2022-12-11T02:41:53;0.20;99.90
43087;DHT22;28708;52.224;6.924;2022-12-11T02:44:26;0.20;99.90
43087;DHT22;28708;52.224;6.924;2022-12-11T02:46:54;0.30;99.90
43087;DHT22;28708;52.224;6.924;2022-12-11T02:49:20;0.30;99.90
43087;DHT22;28708;52.224;6.924;2022-12-11T02:51:48;0.30;99.90
43087;DHT22;28708;52.224;6.924;2022-12-11T02:54:18;0.30;99.90
43087;DHT22;28708;52.224;6.924;2022-12-11T02:56:57;0.30;99.90
43087;DHT22;28708;52.224;6.924;2022-12-11T02:59:33;0.30;99.90
43087;DHT22;28708;52.224;6.924;2022-12-11T03:02:01;0.30;99.90
43087;DHT22;28708;52.224;6.924;2022-12-11T03:04:27;0.30;99.90
43087;DHT22;28708;52.224;6.924;2022-12-11T03:06:57;0.20;99.90
43087;DHT22;28708;52.224;6.924;2022-12-11T03:09:26;0.10;99.90
43087;DHT22;28708;52.224;6.924;2022-12-11T03:11:52;0.20;99.90
43087;DHT22;28708;52.224;6.924;2022-12-11T03:14:18;0.20;99.90
43087;DHT22;28708;52.224;6.924;2022-12-11T03:16:59;0.20;99.90
43087;DHT22;28708;52.224;6.924;2022-12-11T03:19:42;0.30;99.90
43087;DHT22;28708;52.224;6.924;2022-12-11T03:22:31;0.30;99.90
43087;DHT22;28708;52.224;6.924;2022-12-11T03:25:14;0.30;99.90
43087;DHT22;28708;52.224;6.924;2022-12-11T03:30:16;0.20;99.90
43087;DHT22;28708;52.224;6.924;2022-12-11T03:35:32;0.20;99.90
43087;DHT22;28708;52.224;6.924;2022-12-11T03:38:05;0.30;99.90
43087;DHT22;28708;52.224;6.924;2022-12-11T03:40:33;0.20;99.90
43087;DHT22;28708;52.224;6.924;2022-12-11T03:43:00;0.30;99.90
43087;DHT22;28708;52.224;6.924;2022-12-11T03:45:27;0.30;99.90
43087;DHT22;28708;52.224;6.924;2022-12-11T03:47:55;0.40;99.90
43087;DHT22;28708;52.224;6.924;2022-12-11T03:50:25;0.30;99.90
43087;DHT22;28708;52.224;6.924;2022-12-11T03:52:52;0.30;99.90
43087;DHT22;28708;52.224;6.924;2022-12-11T03:55:20;0.40;99.90
43087;DHT22;28708;52.224;6.924;2022-12-11T03:57:46;0.40;99.90
43087;DHT22;28708;52.224;6.924;2022-12-11T04:00:17;0.40;99.90
43087;DHT22;28708;52.224;6.924;2022-12-11T04:02:44;0.30;99.90
43087;DHT22;28708;52.224;6.924;2022-12-11T04:05:30;0.30;99.90
43087;DHT22;28708;52.224;6.924;2022-12-11T04:07:55;0.40;99.90
43087;DHT22;28708;52.224;6.924;2022-12-11T04:10:21;0.40;99.90
43087;DHT22;28708;52.224;6.924;2022-12-11T04:12:47;0.30;99.90
43087;DHT22;28708;52.224;6.924;2022-12-11T04:15:12;0.40;99.90
43087;DHT22;28708;52.224;6.924;2022-12-11T04:17:38;0.50;99.90
43087;DHT22;28708;52.224;6.924;2022-12-11T04:20:22;0.50;99.90
43087;DHT22;28708;52.224;6.924;2022-12-11T04:23:14;0.60;99.90
43087;DHT22;28708;52.224;6.924;2022-12-11T04:26:14;0.60;99.90
43087;DHT22;28708;52.224;6.924;2022-12-11T04:28:42;0.60;99.90
43087;DHT22;28708;52.224;6.924;2022-12-11T04:31:13;0.50;99.90
43087;DHT22;28708;52.224;6.924;2022-12-11T04:33:39;0.60;99.90
43087;DHT22;28708;52.224;6.924;2022-12-11T04:36:05;0.60;99.90
43087;DHT22;28708;52.224;6.924;2022-12-11T04:38:31;0.70;99.90
43087;DHT22;28708;52.224;6.924;2022-12-11T04:41:03;0.60;99.90
43087;DHT22;28708;52.224;6.924;2022-12-11T04:43:29;0.60;99.90
43087;DHT22;28708;52.224;6.924;2022-12-11T04:46:10;0.60;99.90
43087;DHT22;28708;52.224;6.924;2022-12-11T04:48:36;0.70;99.90
43087;DHT22;28708;52.224;6.924;2022-12-11T04:51:02;0.80;99.90
43087;DHT22;28708;52.224;6.924;2022-12-11T04:53:28;0.70;99.90
43087;DHT22;28708;52.224;6.924;2022-12-11T04:55:55;0.80;99.90
43087;DHT22;28708;52.224;6.924;2022-12-11T04:58:21;0.80;99.90
43087;DHT22;28708;52.224;6.924;2022-12-11T05:00:47;0.80;99.90
43087;DHT22;28708;52.224;6.924;2022-12-11T05:03:12;0.80;99.90
43087;DHT22;28708;52.224;6.924;2022-12-11T05:05:38;0.80;99.90
43087;DHT22;28708;52.224;6.924;2022-12-11T05:08:04;0.90;99.90
43087;DHT22;28708;52.224;6.924;2022-12-11T05:10:30;0.80;99.90
43087;DHT22;28708;52.224;6.924;2022-12-11T05:12:55;0.70;99.90
43087;DHT22;28708;52.224;6.924;2022-12-11T05:15:21;0.70;99.90
43087;DHT22;28708;52.224;6.924;2022-12-11T05:17:47;0.70;99.90
43087;DHT22;28708;52.224;6.924;2022-12-11T05:20:12;0.80;99.90
43087;DHT22;28708;52.224;6.924;2022-12-11T05:22:38;0.80;99.90
43087;DHT22;28708;52.224;6.924;2022-12-11T05:25:04;0.80;99.90
43087;DHT22;28708;52.224;6.924;2022-12-11T05:27:30;0.80;99.90
43087;DHT22;28708;52.224;6.924;2022-12-11T05:29:56;0.80;99.90
43087;DHT22;28708;52.224;6.924;2022-12-11T05:32:22;0.80;99.90
43087;DHT22;28708;52.224;6.924;2022-12-11T05:34:49;0.80;99.90
43087;DHT22;28708;52.224;6.924;2022-12-11T05:37:15;0.80;99.90
43087;DHT22;28708;52.224;6.924;2022-12-11T05:39:41;0.80;99.90
43087;DHT22;28708;52.224;6.924;2022-12-11T05:42:06;0.80;99.90
43087;DHT22;28708;52.224;6.924;2022-12-11T05:44:32;0.80;99.90
43087;DHT22;28708;52.224;6.924;2022-12-11T05:46:58;0.80;99.90
43087;DHT22;28708;52.224;6.924;2022-12-11T05:49:24;0.70;99.90
43087;DHT22;28708;52.224;6.924;2022-12-11T05:51:49;0.70;99.90
43087;DHT22;28708;52.224;6.924;2022-12-11T05:54:15;0.70;99.90
43087;DHT22;28708;52.224;6.924;2022-12-11T05:56:41;0.70;99.90
43087;DHT22;28708;52.224;6.924;2022-12-11T05:59:07;0.70;99.90
43087;DHT22;28708;52.224;6.924;2022-12-11T06:01:38;0.70;99.90
43087;DHT22;28708;52.224;6.924;2022-12-11T06:04:06;0.70;99.90
43087;DHT22;28708;52.224;6.924;2022-12-11T06:06:33;0.80;99.90
43087;DHT22;28708;52.224;6.924;2022-12-11T06:08:59;0.80;99.90
43087;DHT22;28708;52.224;6.924;2022-12-11T06:11:26;0.80;99.90
43087;DHT22;28708;52.224;6.924;2022-12-11T06:13:52;0.70;99.90
43087;DHT22;28708;52.224;6.924;2022-12-11T06:16:19;0.70;99.90
43087;DHT22;28708;52.224;6.924;2022-12-11T06:18:45;0.80;99.90
43087;DHT22;28708;52.224;6.924;2022-12-11T06:21:13;0.80;99.90
43087;DHT22;28708;52.224;6.924;2022-12-11T06:23:39;0.90;99.90
43087;DHT22;28708;52.224;6.924;2022-12-11T06:26:06;0.90;99.90
43087;DHT22;28708;52.224;6.924;2022-12-11T06:28:31;0.90;99.90
43087;DHT22;28708;52.224;6.924;2022-12-11T06:30:58;0.80;99.90
43087;DHT22;28708;52.224;6.924;2022-12-11T06:33:24;0.80;99.90
43087;DHT22;28708;52.224;6.924;2022-12-11T06:35:50;0.80;99.90
43087;DHT22;28708;52.224;6.924;2022-12-11T06:38:16;0.90;99.90
43087;DHT22;28708;52.224;6.924;2022-12-11T06:40:42;0.90;99.90
43087;DHT22;28708;52.224;6.924;2022-12-11T06:43:08;0.90;99.90
43087;DHT22;28708;52.224;6.924;2022-12-11T06:45:36;0.80;99.90
43087;DHT22;28708;52.224;6.924;2022-12-11T06:48:01;0.80;99.90
43087;DHT22;28708;52.224;6.924;2022-12-11T06:50:27;0.80;99.90
43087;DHT22;28708;52.224;6.924;2022-12-11T06:52:55;0.80;99.90
43087;DHT22;28708;52.224;6.924;2022-12-11T06:55:21;0.80;99.90
43087;DHT22;28708;52.224;6.924;2022-12-11T06:57:47;0.80;99.90
43087;DHT22;28708;52.224;6.924;2022-12-11T07:00:13;0.90;99.90
43087;DHT22;28708;52.224;6.924;2022-12-11T07:02:39;0.90;99.90
43087;DHT22;28708;52.224;6.924;2022-12-11T07:05:05;0.90;99.90
43087;DHT22;28708;52.224;6.924;2022-12-11T07:07:31;1.00;99.90
43087;DHT22;28708;52.224;6.924;2022-12-11T07:09:56;0.90;99.90
43087;DHT22;28708;52.224;6.924;2022-12-11T07:12:22;0.90;99.90
43087;DHT22;28708;52.224;6.924;2022-12-11T07:14:48;1.00;99.90
43087;DHT22;28708;52.224;6.924;2022-12-11T07:17:13;1.00;99.90
43087;DHT22;28708;52.224;6.924;2022-12-11T07:19:39;1.00;99.90
43087;DHT22;28708;52.224;6.924;2022-12-11T07:22:05;1.00;99.90
43087;DHT22;28708;52.224;6.924;2022-12-11T07:24:31;0.90;99.90
43087;DHT22;28708;52.224;6.924;2022-12-11T07:26:57;0.90;99.90
43087;DHT22;28708;52.224;6.924;2022-12-11T07:29:22;0.80;99.90
43087;DHT22;28708;52.224;6.924;2022-12-11T07:31:48;0.80;99.90
43087;DHT22;28708;52.224;6.924;2022-12-11T07:34:14;0.80;99.90
43087;DHT22;28708;52.224;6.924;2022-12-11T07:36:41;0.80;99.90
43087;DHT22;28708;52.224;6.924;2022-12-11T07:39:06;0.80;99.90
43087;DHT22;28708;52.224;6.924;2022-12-11T07:41:33;0.90;99.90
43087;DHT22;28708;52.224;6.924;2022-12-11T07:43:59;0.90;99.90
43087;DHT22;28708;52.224;6.924;2022-12-11T07:46:27;0.90;99.90
43087;DHT22;28708;52.224;6.924;2022-12-11T07:48:54;0.90;99.90
43087;DHT22;28708;52.224;6.924;2022-12-11T07:51:25;0.80;99.90
43087;DHT22;28708;52.224;6.924;2022-12-11T07:53:55;0.80;99.90
43087;DHT22;28708;52.224;6.924;2022-12-11T07:56:21;0.70;99.90
43087;DHT22;28708;52.224;6.924;2022-12-11T07:58:47;0.70;99.90
43087;DHT22;28708;52.224;6.924;2022-12-11T08:01:18;0.80;99.90
43087;DHT22;28708;52.224;6.924;2022-12-11T08:03:44;0.90;99.90
43087;DHT22;28708;52.224;6.924;2022-12-11T08:06:10;0.90;99.90
43087;DHT22;28708;52.224;6.924;2022-12-11T08:08:36;0.90;99.90
43087;DHT22;28708;52.224;6.924;2022-12-11T08:11:03;1.00;99.90
43087;DHT22;28708;52.224;6.924;2022-12-11T08:13:30;1.00;99.90
43087;DHT22;28708;52.224;6.924;2022-12-11T08:15:56;1.00;99.90
43087;DHT22;28708;52.224;6.924;2022-12-11T08:18:22;1.00;99.90
43087;DHT22;28708;52.224;6.924;2022-12-11T08:20:47;1.00;99.90
43087;DHT22;28708;52.224;6.924;2022-12-11T08:23:13;1.00;99.90
43087;DHT22;28708;52.224;6.924;2022-12-11T08:25:41;1.00;99.90
43087;DHT22;28708;52.224;6.924;2022-12-11T08:28:07;1.00;99.90
43087;DHT22;28708;52.224;6.924;2022-12-11T08:30:33;1.00;99.90
43087;DHT22;28708;52.224;6.924;2022-12-11T08:32:58;1.10;99.90
43087;DHT22;28708;52.224;6.924;2022-12-11T08:35:25;1.10;99.90
43087;DHT22;28708;52.224;6.924;2022-12-11T08:37:50;1.00;99.90
43087;DHT22;28708;52.224;6.924;2022-12-11T08:40:16;1.00;99.90
43087;DHT22;28708;52.224;6.924;2022-12-11T08:42:42;1.00;99.90
43087;DHT22;28708;52.224;6.924;2022-12-11T08:45:08;1.00;99.90
43087;DHT22;28708;52.224;6.924;2022-12-11T08:47:34;1.00;99.90
43087;DHT22;28708;52.224;6.924;2022-12-11T08:50:00;1.10;99.90
43087;DHT22;28708;52.224;6.924;2022-12-11T08:52:25;1.10;99.90
43087;DHT22;28708;52.224;6.924;2022-12-11T08:54:51;1.10;99.90
43087;DHT22;28708;52.224;6.924;2022-12-11T08:57:17;1.10;99.90
43087;DHT22;28708;52.224;6.924;2022-12-11T08:59:42;1.10;99.90
43087;DHT22;28708;52.224;6.924;2022-12-11T09:02:11;1.10;99.90
43087;DHT22;28708;52.224;6.924;2022-12-11T09:04:37;1.10;99.90
43087;DHT22;28708;52.224;6.924;2022-12-11T09:07:03;1.20;99.90
43087;DHT22;28708;52.224;6.924;2022-12-11T09:09:29;1.10;99.90
43087;DHT22;28708;52.224;6.924;2022-12-11T09:11:54;1.00;99.90
43087;DHT22;28708;52.224;6.924;2022-12-11T09:14:21;1.00;99.90
43087;DHT22;28708;52.224;6.924;2022-12-11T09:16:47;1.10;99.90
43087;DHT22;28708;52.224;6.924;2022-12-11T09:19:13;1.10;99.90
43087;DHT22;28708;52.224;6.924;2022-12-11T09:21:40;1.20;99.90
43087;DHT22;28708;52.224;6.924;2022-12-11T09:24:08;1.10;99.90
43087;DHT22;28708;52.224;6.924;2022-12-11T09:26:34;1.20;99.90
43087;DHT22;28708;52.224;6.924;2022-12-11T09:29:01;1.20;99.90
43087;DHT22;28708;52.224;6.924;2022-12-11T09:31:30;1.20;99.90
43087;DHT22;28708;52.224;6.924;2022-12-11T09:34:02;1.20;99.90
43087;DHT22;28708;52.224;6.924;2022-12-11T09:36:28;1.20;99.90
43087;DHT22;28708;52.224;6.924;2022-12-11T09:38:54;1.10;99.90
43087;DHT22;28708;52.224;6.924;2022-12-11T09:44:06;1.20;99.90
43087;DHT22;28708;52.224;6.924;2022-12-11T09:46:37;1.20;99.90
43087;DHT22;28708;52.224;6.924;2022-12-11T09:49:04;1.10;99.90
43087;DHT22;28708;52.224;6.924;2022-12-11T09:51:39;1.20;99.90
43087;DHT22;28708;52.224;6.924;2022-12-11T09:54:08;1.30;99.90
43087;DHT22;28708;52.224;6.924;2022-12-11T09:56:43;1.30;99.90
43087;DHT22;28708;52.224;6.924;2022-12-11T10:07:09;1.20;99.90
43087;DHT22;28708;52.224;6.924;2022-12-11T10:09:46;1.20;99.90
43087;DHT22;28708;52.224;6.924;2022-12-11T10:17:58;1.30;99.90
43087;DHT22;28708;52.224;6.924;2022-12-11T10:20:30;1.40;99.90
43087;DHT22;28708;52.224;6.924;2022-12-11T10:23:00;1.30;99.90
43087;DHT22;28708;52.224;6.924;2022-12-11T10:25:28;1.30;99.90
43087;DHT22;28708;52.224;6.924;2022-12-11T10:27:55;1.30;99.90
43087;DHT22;28708;52.224;6.924;2022-12-11T10:30:34;1.30;99.90
43087;DHT22;28708;52.224;6.924;2022-12-11T10:36:00;1.30;99.90
43087;DHT22;28708;52.224;6.924;2022-12-11T10:38:39;1.40;99.90
43087;DHT22;28708;52.224;6.924;2022-12-11T10:41:17;1.40;99.90
43087;DHT22;28708;52.224;6.924;2022-12-11T10:43:48;1.40;99.90
43087;DHT22;28708;52.224;6.924;2022-12-11T10:46:26;1.50;99.90
43087;DHT22;28708;52.224;6.924;2022-12-11T10:49:00;1.40;99.90
43087;DHT22;28708;52.224;6.924;2022-12-11T10:54:04;1.50;99.90
43087;DHT22;28708;52.224;6.924;2022-12-11T10:56:32;1.50;99.90
43087;DHT22;28708;52.224;6.924;2022-12-11T10:58:59;1.50;99.90
43087;DHT22;28708;52.224;6.924;2022-12-11T11:01:27;1.50;99.90
43087;DHT22;28708;52.224;6.924;2022-12-11T11:06:23;1.50;99.90
43087;DHT22;28708;52.224;6.924;2022-12-11T11:08:51;1.40;99.90
43087;DHT22;28708;52.224;6.924;2022-12-11T11:14:14;1.40;99.90
43087;DHT22;28708;52.224;6.924;2022-12-11T11:16:43;1.40;99.90
43087;DHT22;28708;52.224;6.924;2022-12-11T11:19:39;1.40;99.90
43087;DHT22;28708;52.224;6.924;2022-12-11T11:22:07;1.50;99.90
43087;DHT22;28708;52.224;6.924;2022-12-11T11:24:45;1.40;99.90
43087;DHT22;28708;52.224;6.924;2022-12-11T11:27:29;1.60;99.90
43087;DHT22;28708;52.224;6.924;2022-12-11T11:30:25;1.50;99.90
43087;DHT22;28708;52.224;6.924;2022-12-11T11:32:57;1.40;99.90
43087;DHT22;28708;52.224;6.924;2022-12-11T11:35:27;1.40;99.90
43087;DHT22;28708;52.224;6.924;2022-12-11T11:40:32;1.50;99.90
43087;DHT22;28708;52.224;6.924;2022-12-11T11:43:27;1.40;99.90
43087;DHT22;28708;52.224;6.924;2022-12-11T11:46:13;1.30;99.90
43087;DHT22;28708;52.224;6.924;2022-12-11T11:51:51;1.40;99.90
43087;DHT22;28708;52.224;6.924;2022-12-11T11:57:41;1.40;99.90
43087;DHT22;28708;52.224;6.924;2022-12-11T12:00:20;1.40;99.90
43087;DHT22;28708;52.224;6.924;2022-12-11T12:02:48;1.40;99.90
43087;DHT22;28708;52.224;6.924;2022-12-11T12:05:19;1.40;99.90
43087;DHT22;28708;52.224;6.924;2022-12-11T12:08:00;1.40;99.90
43087;DHT22;28708;52.224;6.924;2022-12-11T12:10:37;1.50;99.90
43087;DHT22;28708;52.224;6.924;2022-12-11T12:13:16;1.50;99.90
43087;DHT22;28708;52.224;6.924;2022-12-11T12:26:21;1.30;99.90
43087;DHT22;28708;52.224;6.924;2022-12-11T12:39:14;1.30;99.90
43087;DHT22;28708;52.224;6.924;2022-12-11T12:41:59;1.30;99.90
43087;DHT22;28708;52.224;6.924;2022-12-11T12:44:33;1.30;99.90
43087;DHT22;28708;52.224;6.924;2022-12-11T12:47:07;1.30;99.90
43087;DHT22;28708;52.224;6.924;2022-12-11T12:49:36;1.20;99.90
43087;DHT22;28708;52.224;6.924;2022-12-11T12:52:04;1.30;99.90
43087;DHT22;28708;52.224;6.924;2022-12-11T12:54:31;1.30;99.90
43087;DHT22;28708;52.224;6.924;2022-12-11T12:56:58;1.30;99.90
43087;DHT22;28708;52.224;6.924;2022-12-11T12:59:27;1.30;99.90
43087;DHT22;28708;52.224;6.924;2022-12-11T13:01:58;1.30;99.90
43087;DHT22;28708;52.224;6.924;2022-12-11T13:04:42;1.30;99.90
43087;DHT22;28708;52.224;6.924;2022-12-11T13:07:19;1.30;99.90
43087;DHT22;28708;52.224;6.924;2022-12-11T13:10:29;1.20;99.90
43087;DHT22;28708;52.224;6.924;2022-12-11T13:12:55;1.20;99.90
43087;DHT22;28708;52.224;6.924;2022-12-11T13:18:03;1.20;99.90
43087;DHT22;28708;52.224;6.924;2022-12-11T13:20:31;1.20;99.90
43087;DHT22;28708;52.224;6.924;2022-12-11T13:26:05;1.30;99.90
43087;DHT22;28708;52.224;6.924;2022-12-11T13:28:46;1.20;99.90
43087;DHT22;28708;52.224;6.924;2022-12-11T13:33:46;1.30;99.90
43087;DHT22;28708;52.224;6.924;2022-12-11T13:38:45;1.20;99.90
43087;DHT22;28708;52.224;6.924;2022-12-11T13:41:12;1.10;99.90
43087;DHT22;28708;52.224;6.924;2022-12-11T13:43:40;1.00;99.90
43087;DHT22;28708;52.224;6.924;2022-12-11T13:46:09;1.10;99.90
43087;DHT22;28708;52.224;6.924;2022-12-11T13:48:38;1.20;99.90
43087;DHT22;28708;52.224;6.924;2022-12-11T13:51:04;1.20;99.90
43087;DHT22;28708;52.224;6.924;2022-12-11T13:53:31;1.30;99.90
43087;DHT22;28708;52.224;6.924;2022-12-11T13:56:03;1.30;99.90
43087;DHT22;28708;52.224;6.924;2022-12-11T13:58:33;1.30;99.90
43087;DHT22;28708;52.224;6.924;2022-12-11T14:03:37;1.40;99.90
43087;DHT22;28708;52.224;6.924;2022-12-11T14:06:03;1.40;99.90
43087;DHT22;28708;52.224;6.924;2022-12-11T14:08:34;1.40;99.90
43087;DHT22;28708;52.224;6.924;2022-12-11T14:11:02;1.40;99.90
43087;DHT22;28708;52.224;6.924;2022-12-11T14:13:39;1.30;99.90
43087;DHT22;28708;52.224;6.924;2022-12-11T14:16:06;1.30;99.90
43087;DHT22;28708;52.224;6.924;2022-12-11T14:18:34;1.30;99.90
43087;DHT22;28708;52.224;6.924;2022-12-11T14:21:03;1.30;99.90
43087;DHT22;28708;52.224;6.924;2022-12-11T14:23:32;1.40;99.90
43087;DHT22;28708;52.224;6.924;2022-12-11T14:26:03;1.40;99.90
43087;DHT22;28708;52.224;6.924;2022-12-11T14:28:36;1.30;99.90
43087;DHT22;28708;52.224;6.924;2022-12-11T14:31:04;1.20;99.90
43087;DHT22;28708;52.224;6.924;2022-12-11T14:33:34;1.30;99.90
43087;DHT22;28708;52.224;6.924;2022-12-11T14:36:01;1.30;99.90
43087;DHT22;28708;52.224;6.924;2022-12-11T14:38:34;1.30;99.90
43087;DHT22;28708;52.224;6.924;2022-12-11T14:41:12;1.20;99.90
43087;DHT22;28708;52.224;6.924;2022-12-11T14:44:01;1.10;99.90
43087;DHT22;28708;52.224;6.924;2022-12-11T14:46:35;1.10;99.90
43087;DHT22;28708;52.224;6.924;2022-12-11T14:49:06;1.20;99.90
43087;DHT22;28708;52.224;6.924;2022-12-11T14:51:36;1.30;99.90
43087;DHT22;28708;52.224;6.924;2022-12-11T14:54:04;1.30;99.90
43087;DHT22;28708;52.224;6.924;2022-12-11T14:56:30;1.30;99.90
43087;DHT22;28708;52.224;6.924;2022-12-11T14:59:02;1.40;99.90
43087;DHT22;28708;52.224;6.924;2022-12-11T15:01:32;1.40;99.90
43087;DHT22;28708;52.224;6.924;2022-12-11T15:04:02;1.30;99.90
43087;DHT22;28708;52.224;6.924;2022-12-11T15:06:33;1.20;99.90
43087;DHT22;28708;52.224;6.924;2022-12-11T15:09:16;1.20;99.90
43087;DHT22;28708;52.224;6.924;2022-12-11T15:11:42;1.10;99.90
43087;DHT22;28708;52.224;6.924;2022-12-11T15:14:10;1.20;99.90
43087;DHT22;28708;52.224;6.924;2022-12-11T15:16:38;1.20;99.90
43087;DHT22;28708;52.224;6.924;2022-12-11T15:19:05;1.10;99.90
43087;DHT22;28708;52.224;6.924;2022-12-11T15:21:35;1.10;99.90
43087;DHT22;28708;52.224;6.924;2022-12-11T15:24:03;1.10;99.90
43087;DHT22;28708;52.224;6.924;2022-12-11T15:26:43;1.10;99.90
43087;DHT22;28708;52.224;6.924;2022-12-11T15:29:37;1.20;99.90
43087;DHT22;28708;52.224;6.924;2022-12-11T15:32:15;1.30;99.90
43087;DHT22;28708;52.224;6.924;2022-12-11T15:34:54;1.30;99.90
43087;DHT22;28708;52.224;6.924;2022-12-11T15:37:28;1.20;99.90
43087;DHT22;28708;52.224;6.924;2022-12-11T15:39:56;1.20;99.90
43087;DHT22;28708;52.224;6.924;2022-12-11T15:42:33;1.10;99.90
43087;DHT22;28708;52.224;6.924;2022-12-11T15:44:59;1.10;99.90
43087;DHT22;28708;52.224;6.924;2022-12-11T15:47:28;1.00;99.90
43087;DHT22;28708;52.224;6.924;2022-12-11T15:50:14;1.00;99.90
43087;DHT22;28708;52.224;6.924;2022-12-11T15:52:44;1.10;99.90
43087;DHT22;28708;52.224;6.924;2022-12-11T15:55:13;1.10;99.90
43087;DHT22;28708;52.224;6.924;2022-12-11T15:57:44;1.10;99.90
43087;DHT22;28708;52.224;6.924;2022-12-11T16:00:16;1.10;99.90
43087;DHT22;28708;52.224;6.924;2022-12-11T16:02:43;1.10;99.90
43087;DHT22;28708;52.224;6.924;2022-12-11T16:05:09;1.10;99.90
43087;DHT22;28708;52.224;6.924;2022-12-11T16:07:35;1.10;99.90
43087;DHT22;28708;52.224;6.924;2022-12-11T16:10:00;1.00;99.90
43087;DHT22;28708;52.224;6.924;2022-12-11T16:12:26;1.00;99.90
43087;DHT22;28708;52.224;6.924;2022-12-11T16:14:51;1.00;99.90
43087;DHT22;28708;52.224;6.924;2022-12-11T16:17:17;1.10;99.90
43087;DHT22;28708;52.224;6.924;2022-12-11T16:19:43;1.10;99.90
43087;DHT22;28708;52.224;6.924;2022-12-11T16:22:10;1.10;99.90
43087;DHT22;28708;52.224;6.924;2022-12-11T16:24:37;1.10;99.90
43087;DHT22;28708;52.224;6.924;2022-12-11T16:27:04;1.10;99.90
43087;DHT22;28708;52.224;6.924;2022-12-11T16:29:37;1.10;99.90
43087;DHT22;28708;52.224;6.924;2022-12-11T16:32:04;1.20;99.90
43087;DHT22;28708;52.224;6.924;2022-12-11T16:34:31;1.20;99.90
43087;DHT22;28708;52.224;6.924;2022-12-11T16:36:58;1.10;99.90
43087;DHT22;28708;52.224;6.924;2022-12-11T16:39:24;1.10;99.90
43087;DHT22;28708;52.224;6.924;2022-12-11T16:41:50;1.10;99.90
43087;DHT22;28708;52.224;6.924;2022-12-11T16:44:20;1.20;99.90
43087;DHT22;28708;52.224;6.924;2022-12-11T16:46:47;1.30;99.90
43087;DHT22;28708;52.224;6.924;2022-12-11T16:49:13;1.30;99.90
43087;DHT22;28708;52.224;6.924;2022-12-11T16:51:39;1.30;99.90
43087;DHT22;28708;52.224;6.924;2022-12-11T16:54:05;1.30;99.90
43087;DHT22;28708;52.224;6.924;2022-12-11T16:56:31;1.40;99.90
43087;DHT22;28708;52.224;6.924;2022-12-11T16:58:57;1.30;99.90
43087;DHT22;28708;52.224;6.924;2022-12-11T17:01:22;1.20;99.90
43087;DHT22;28708;52.224;6.924;2022-12-11T17:03:48;1.20;99.90
43087;DHT22;28708;52.224;6.924;2022-12-11T17:06:15;1.20;99.90
43087;DHT22;28708;52.224;6.924;2022-12-11T17:08:42;1.30;99.90
43087;DHT22;28708;52.224;6.924;2022-12-11T17:11:11;1.20;99.90
43087;DHT22;28708;52.224;6.924;2022-12-11T17:13:37;1.10;99.90
43087;DHT22;28708;52.224;6.924;2022-12-11T17:16:04;1.20;99.90
43087;DHT22;28708;52.224;6.924;2022-12-11T17:18:30;1.20;99.90
43087;DHT22;28708;52.224;6.924;2022-12-11T17:20:56;1.20;99.90